Time;durP1;ratioP1;P1;durP2;ratioP2;P2;SDS_P1;SDS_P2;PMS_P1;PMS_P2;Temp;Humidity;BMP_temperature;BMP_pressure;BME280_temperature;BME280_humidity;BME280_pressure;Samples;Min_cycle;Max_cycle;Signal;HPM_P1;HPM_P2
2021/10/24 00:00:01;;;;;;;1.55;0.90;;;;;;;21.49;27.01;101318.25;5087148;28;20052;-53
2021/10/24 00:02:41;;;;;;;1.58;0.70;;;;;;;21.49;27.10;101320.09;5073521;28;20440;-47
2021/10/24 00:05:10;;;;;;;1.17;0.75;;;;;;;21.50;27.09;101327.22;5056096;28;20413;-55
2021/10/24 00:07:38;;;;;;;0.73;0.55;;;;;;;21.48;27.10;101338.19;5088907;28;20519;-51
2021/10/24 00:10:07;;;;;;;1.60;0.77;;;;;;;21.48;27.15;101324.66;5089422;28;20082;-55
2021/10/24 00:12:36;;;;;;;0.82;0.60;;;;;;;21.38;27.11;101318.13;5087740;28;20064;-48
2021/10/24 00:15:04;;;;;;;1.83;0.90;;;;;;;21.39;27.03;101325.25;5065015;28;20540;-53
2021/10/24 00:17:33;;;;;;;1.27;0.65;;;;;;;21.48;27.03;101354.41;5074398;28;20063;-51
2021/10/24 00:20:02;;;;;;;1.00;0.60;;;;;;;21.48;27.04;101349.00;5077371;28;20063;-54
2021/10/24 00:22:30;;;;;;;1.38;0.80;;;;;;;21.48;26.99;101350.81;5079694;28;20063;-55
2021/10/24 00:24:58;;;;;;;0.85;0.50;;;;;;;21.48;26.92;101365.25;5068435;28;20465;-50
2021/10/24 00:27:26;;;;;;;1.60;0.80;;;;;;;21.48;26.86;101375.19;5069982;28;20048;-54
2021/10/24 00:29:54;;;;;;;2.05;0.68;;;;;;;21.48;26.94;101381.47;5065481;28;20052;-52
2021/10/24 00:32:22;;;;;;;1.30;0.60;;;;;;;21.48;26.99;101375.19;5077521;28;20048;-57
2021/10/24 00:34:49;;;;;;;0.98;0.63;;;;;;;21.47;26.93;101386.97;5060173;28;20056;-54
2021/10/24 00:37:18;;;;;;;1.23;0.63;;;;;;;21.47;26.95;101390.56;5069297;28;20064;-53
2021/10/24 00:39:46;;;;;;;1.25;0.65;;;;;;;21.48;26.90;101386.00;5073774;28;20057;-54
2021/10/24 00:42:15;;;;;;;2.33;0.82;;;;;;;21.47;27.01;101403.22;5073802;28;20052;-51
2021/10/24 00:44:43;;;;;;;1.27;0.68;;;;;;;21.45;26.94;101400.63;5082350;28;20074;-51
2021/10/24 00:47:11;;;;;;;1.58;0.60;;;;;;;21.46;26.91;101412.31;5070631;28;20055;-51
2021/10/24 00:49:40;;;;;;;1.40;0.60;;;;;;;21.46;26.96;101410.47;5081873;28;20048;-51
2021/10/24 00:52:07;;;;;;;1.10;0.50;;;;;;;21.47;26.96;101409.50;5097474;28;20064;-55
2021/10/24 00:54:37;;;;;;;1.45;0.70;;;;;;;21.46;26.77;101415.03;5088467;28;20048;-55
2021/10/24 00:57:05;;;;;;;1.23;0.63;;;;;;;21.46;26.81;101418.59;5078180;28;20064;-51
2021/10/24 00:59:33;;;;;;;1.38;0.60;;;;;;;21.46;26.74;101421.31;5064684;28;20784;-52
2021/10/24 01:02:00;;;;;;;1.55;0.70;;;;;;;21.46;26.90;101415.91;5081155;28;20043;-53
2021/10/24 01:04:28;;;;;;;0.95;0.70;;;;;;;21.46;26.77;101420.44;5074551;28;20053;-53
2021/10/24 01:07:01;;;;;;;1.17;0.60;;;;;;;21.42;26.77;101412.53;5066864;28;20052;-50
2021/10/24 01:09:30;;;;;;;0.98;0.47;;;;;;;21.46;26.91;101425.84;5064222;28;20057;-54
2021/10/24 01:12:03;;;;;;;2.08;0.90;;;;;;;21.46;26.75;101420.44;5067106;28;20467;-53
2021/10/24 01:14:32;;;;;;;0.68;0.40;;;;;;;21.42;26.77;101423.34;5069992;28;20061;-48
2021/10/24 01:17:00;;;;;;;0.68;0.55;;;;;;;21.45;26.93;101427.69;5071968;28;20060;-54
2021/10/24 01:19:28;;;;;;;2.08;0.70;;;;;;;21.42;26.76;101428.75;5084853;28;20493;-52
2021/10/24 01:21:57;;;;;;;1.38;0.60;;;;;;;21.43;26.64;101435.91;5085134;28;20056;-57
2021/10/24 01:24:25;;;;;;;0.80;0.38;;;;;;;21.46;26.82;101440.25;5077248;28;20056;-54
2021/10/24 01:26:55;;;;;;;0.93;0.60;;;;;;;21.45;26.71;101438.53;5077751;28;20052;-52
2021/10/24 01:29:24;;;;;;;1.02;0.68;;;;;;;21.44;26.78;101439.47;5076175;28;20056;-56
2021/10/24 01:31:51;;;;;;;0.52;0.43;;;;;;;21.44;26.73;101447.59;5092058;28;20052;-55
2021/10/24 01:34:21;;;;;;;1.40;0.52;;;;;;;21.44;26.82;101442.19;5079131;28;20060;-51
2021/10/24 01:36:50;;;;;;;0.77;0.68;;;;;;;21.41;26.69;101440.56;5078861;28;20067;-54
2021/10/24 01:39:20;;;;;;;2.15;0.70;;;;;;;21.43;26.69;101445.88;5083306;28;20068;-52
2021/10/24 01:41:47;;;;;;;0.88;0.52;;;;;;;21.43;26.62;101448.56;5079465;28;20079;-57
2021/10/24 01:44:16;;;;;;;0.57;0.40;;;;;;;21.44;26.74;101455.72;5074680;28;20589;-54
2021/10/24 01:46:43;;;;;;;0.70;0.52;;;;;;;21.44;26.71;101453.00;5058344;28;20059;-56
2021/10/24 01:49:12;;;;;;;0.90;0.60;;;;;;;21.44;26.63;101453.88;5066974;28;20061;-53
2021/10/24 01:51:40;;;;;;;1.75;0.60;;;;;;;21.43;26.63;101462.97;5068775;28;20705;-54
2021/10/24 01:54:08;;;;;;;1.52;0.60;;;;;;;21.41;26.63;101467.63;5085581;28;20052;-58
2021/10/24 01:56:37;;;;;;;1.10;0.50;;;;;;;21.44;26.58;101480.06;5077159;28;20052;-55
2021/10/24 01:59:05;;;;;;;0.82;0.52;;;;;;;21.44;26.49;101480.06;5072417;28;20055;-49
2021/10/24 02:01:51;;;;;;;;;;;;;;;21.51;26.68;101480.53;5087924;28;20059;-51
2021/10/24 02:04:41;;;;;;;1.23;0.45;;;;;;;21.46;26.49;101482.69;5075107;28;19924;-54
2021/10/24 02:07:23;;;;;;;2.33;0.80;;;;;;;21.45;26.62;101492.66;5086337;28;20059;-57
2021/10/24 02:09:52;;;;;;;1.00;0.60;;;;;;;21.43;26.83;101495.44;5078932;28;20052;-56
2021/10/24 02:12:25;;;;;;;1.33;0.68;;;;;;;21.44;26.56;101497.19;5085508;28;20043;-54
2021/10/24 02:14:59;;;;;;;0.90;0.40;;;;;;;21.43;26.49;101490.03;5078322;28;20504;-52
2021/10/24 02:17:28;;;;;;;1.00;0.50;;;;;;;21.44;26.54;101496.31;5072545;28;20071;-56
2021/10/24 02:19:56;;;;;;;1.08;0.85;;;;;;;21.38;26.49;101478.66;5075648;28;20078;-54
2021/10/24 02:22:24;;;;;;;0.52;0.32;;;;;;;21.43;26.50;101500.00;5077971;28;20063;-55
2021/10/24 02:24:52;;;;;;;1.15;0.70;;;;;;;21.41;26.52;101493.81;5087695;28;20063;-53
2021/10/24 02:27:20;;;;;;;2.00;1.15;;;;;;;21.43;26.47;101503.56;5069781;28;20056;-57
2021/10/24 02:29:49;;;;;;;2.05;0.70;;;;;;;21.42;26.44;101504.56;5071225;28;20428;-53
2021/10/24 02:32:19;;;;;;;0.90;0.60;;;;;;;21.42;26.29;101509.97;5063661;28;20142;-55
2021/10/24 02:34:50;;;;;;;1.55;0.73;;;;;;;21.40;26.50;101511.88;5084517;28;20067;-51
2021/10/24 02:37:28;;;;;;;1.75;0.52;;;;;;;21.42;26.48;101512.66;5074307;28;20060;-55
2021/10/24 02:39:56;;;;;;;1.67;0.68;;;;;;;21.42;26.42;101507.25;5065520;28;20064;-59
2021/10/24 02:42:31;;;;;;;2.03;0.68;;;;;;;21.43;26.55;101510.84;5087253;28;20191;-51
2021/10/24 02:45:00;;;;;;;1.67;0.80;;;;;;;21.42;26.45;101515.38;5068647;28;20048;-56
2021/10/24 02:47:29;;;;;;;1.90;0.70;;;;;;;21.42;26.50;101509.97;5069753;28;20057;-50
2021/10/24 02:49:56;;;;;;;1.40;1.00;;;;;;;21.40;26.46;101517.31;5074719;28;20052;-52
2021/10/24 02:52:24;;;;;;;1.42;0.75;;;;;;;;;;5084199;28;20066;-57
2021/10/24 02:54:52;;;;;;;2.50;1.45;;;;;;;;;;5086268;28;20056;-56
2021/10/24 02:57:19;;;;;;;1.55;0.90;;;;;;;21.38;26.30;101527.38;5076552;28;20450;-55
2021/10/24 02:59:47;;;;;;;1.67;1.10;;;;;;;;;;5081445;28;20052;-51
2021/10/24 03:02:17;;;;;;;2.25;1.15;;;;;;;21.42;26.53;101545.16;5083569;28;20055;-54
2021/10/24 03:04:45;;;;;;;2.30;1.13;;;;;;;21.42;26.53;101539.75;5088808;28;20051;-53
2021/10/24 03:07:13;;;;;;;2.42;1.20;;;;;;;;;;5080412;28;20052;-52
2021/10/24 03:09:42;;;;;;;2.65;1.30;;;;;;;;;;5065334;28;20584;-55
2021/10/24 03:12:11;;;;;;;2.15;1.42;;;;;;;21.40;26.42;101560.59;5074656;28;20049;-51
2021/10/24 03:14:39;;;;;;;3.55;1.58;;;;;;;21.42;26.37;101564.09;5071223;28;20052;-51
2021/10/24 03:17:07;;;;;;;2.22;1.38;;;;;;;21.43;26.29;101571.25;5092060;28;20060;-53
2021/10/24 03:19:41;;;;;;;3.20;1.95;;;;;;;21.40;26.34;101568.72;5088258;28;20079;-54
2021/10/24 03:22:09;;;;;;;4.88;2.20;;;;;;;21.41;26.48;101580.41;5079127;28;20512;-50
2021/10/24 03:24:38;;;;;;;3.10;2.20;;;;;;;21.41;26.28;101578.63;5083378;28;20527;-58
2021/10/24 03:27:06;;;;;;;4.50;1.88;;;;;;;21.41;26.42;101589.44;5080143;28;20396;-52
2021/10/24 03:29:34;;;;;;;4.13;2.35;;;;;;;21.41;26.29;101597.56;5081502;28;20058;-53
2021/10/24 03:32:02;;;;;;;4.03;1.83;;;;;;;21.41;26.21;101596.66;5078041;28;20060;-49
2021/10/24 03:34:33;;;;;;;4.18;2.53;;;;;;;21.40;26.20;101593.09;5078701;28;20057;-57
2021/10/24 03:37:02;;;;;;;3.17;1.88;;;;;;;21.39;26.27;101598.63;5081076;28;20063;-52
2021/10/24 03:39:33;;;;;;;4.88;2.33;;;;;;;21.41;26.29;101596.66;5052036;28;20063;-47
2021/10/24 03:42:06;;;;;;;5.15;2.70;;;;;;;21.40;26.39;101601.22;5074085;28;20065;-52
2021/10/24 03:44:34;;;;;;;4.53;2.22;;;;;;;21.40;26.36;101603.91;5077337;28;20066;-54
2021/10/24 03:47:02;;;;;;;3.92;2.22;;;;;;;21.40;26.20;101603.91;5086261;28;20493;-47
2021/10/24 03:49:32;;;;;;;3.72;2.50;;;;;;;21.40;26.28;101603.06;5084680;28;20068;-57
2021/10/24 03:52:02;;;;;;;3.97;2.58;;;;;;;21.39;26.22;101604.03;5073807;28;20044;-53
2021/10/24 03:54:30;;;;;;;5.82;2.83;;;;;;;21.39;26.17;101612.16;5065223;28;20060;-53
2021/10/24 03:57:00;;;;;;;3.53;2.30;;;;;;;21.40;26.38;101608.47;5068378;28;20504;-52
2021/10/24 03:59:28;;;;;;;4.55;2.35;;;;;;;21.39;26.38;101617.56;5075042;28;20056;-56
2021/10/24 04:01:56;;;;;;;3.58;1.88;;;;;;;21.39;26.20;101615.72;5085417;28;20393;-53
2021/10/24 04:04:27;;;;;;;4.30;2.28;;;;;;;21.40;26.11;101628.28;5074992;28;20059;-55
2021/10/24 04:06:54;;;;;;;4.57;2.58;;;;;;;21.41;26.20;101629.16;5071157;28;20050;-54
2021/10/24 04:09:24;;;;;;;3.33;2.05;;;;;;;21.39;26.24;101633.81;5072432;28;20056;-57
2021/10/24 04:11:52;;;;;;;4.00;2.05;;;;;;;21.38;26.16;101632.94;5065881;28;20056;-51
2021/10/24 04:14:20;;;;;;;4.10;1.98;;;;;;;21.39;26.30;101637.38;5076545;28;20189;-57
2021/10/24 04:16:48;;;;;;;3.72;2.10;;;;;;;21.39;26.15;101641.91;5075907;28;20051;-54
2021/10/24 04:19:45;;;;;;;3.72;1.90;;;;;;;21.36;26.06;101639.41;5071339;28;20436;-54
2021/10/24 04:22:13;;;;;;;3.45;2.13;;;;;;;21.37;26.08;101650.13;5072843;28;20067;-50
2021/10/24 04:24:42;;;;;;;4.80;2.65;;;;;;;21.38;26.14;101654.59;5069808;28;20053;-51
2021/10/24 04:27:10;;;;;;;3.75;2.05;;;;;;;21.38;26.15;101646.47;5060314;28;20075;-57
2021/10/24 04:29:38;;;;;;;3.17;1.88;;;;;;;21.39;26.12;101663.56;5051848;28;20048;-54
2021/10/24 04:32:06;;;;;;;3.28;2.20;;;;;;;21.38;26.19;101672.66;5061335;28;20076;-52
2021/10/24 04:34:33;;;;;;;3.38;2.10;;;;;;;21.38;26.02;101667.25;5080875;28;20051;-51
2021/10/24 04:37:01;;;;;;;3.00;1.73;;;;;;;21.38;26.01;101660.00;5072072;28;20049;-54
2021/10/24 04:39:29;;;;;;;3.28;1.60;;;;;;;21.37;26.13;101676.31;5069144;28;20057;-58
2021/10/24 04:41:58;;;;;;;3.47;1.77;;;;;;;21.39;25.98;101675.28;5081672;28;20428;-55
2021/10/24 04:44:26;;;;;;;3.15;1.70;;;;;;;21.38;26.08;101681.66;5089133;28;20059;-51
2021/10/24 04:46:54;;;;;;;3.08;1.52;;;;;;;21.38;26.06;101678.09;5074237;28;20048;-51
2021/10/24 04:49:22;;;;;;;2.33;1.55;;;;;;;21.37;26.09;101679.03;5072437;28;20063;-52
2021/10/24 04:51:50;;;;;;;3.40;1.60;;;;;;;21.37;26.02;101684.44;5067602;28;20055;-51
2021/10/24 04:54:19;;;;;;;6.43;1.98;;;;;;;21.37;26.01;101685.31;5079804;28;20048;-52
2021/10/24 04:56:49;;;;;;;3.05;1.80;;;;;;;21.36;25.98;101689.00;5055315;28;20051;-55
2021/10/24 04:59:18;;;;;;;2.65;1.27;;;;;;;21.38;25.91;101691.63;5081649;28;20051;-48
2021/10/24 05:01:47;;;;;;;3.55;1.58;;;;;;;21.36;26.02;101699.81;5078888;28;20059;-51
2021/10/24 05:04:16;;;;;;;2.40;1.45;;;;;;;21.37;26.03;101704.25;5080198;28;20044;-53
2021/10/24 05:06:44;;;;;;;2.55;1.40;;;;;;;21.37;25.98;101703.38;5063130;28;20048;-53
2021/10/24 05:09:12;;;;;;;2.53;1.38;;;;;;;21.36;26.04;101707.94;5073094;28;20497;-48
2021/10/24 05:11:40;;;;;;;2.45;1.30;;;;;;;21.36;25.92;101713.34;5053855;28;20056;-52
2021/10/24 05:14:08;;;;;;;1.63;1.48;;;;;;;21.36;25.95;101718.75;5083098;28;20052;-51
2021/10/24 05:16:38;;;;;;;3.10;1.77;;;;;;;21.37;25.99;101720.50;5086861;28;20048;-52
2021/10/24 05:19:08;;;;;;;2.60;1.58;;;;;;;21.36;26.03;101728.72;5057890;28;20057;-50
2021/10/24 05:21:36;;;;;;;3.58;1.50;;;;;;;21.37;25.89;101728.59;5059286;28;20071;-50
2021/10/24 05:24:05;;;;;;;3.05;1.48;;;;;;;21.36;25.93;101726.00;5065072;28;20052;-49
2021/10/24 05:26:34;;;;;;;3.22;2.03;;;;;;;21.37;25.79;101741.28;5075448;28;20044;-54
2021/10/24 05:29:02;;;;;;;2.33;1.58;;;;;;;21.26;25.89;101720.25;5071752;28;20517;-52
2021/10/24 05:31:30;;;;;;;2.55;1.23;;;;;;;21.36;25.90;101753.06;5079485;28;20048;-54
2021/10/24 05:34:08;;;;;;;2.30;1.23;;;;;;;21.37;25.90;101754.81;5069113;28;20044;-52
2021/10/24 05:36:49;;;;;;;2.78;1.33;;;;;;;21.36;26.00;101756.66;5068433;28;20071;-53
2021/10/24 05:39:17;;;;;;;2.03;1.27;;;;;;;21.34;26.02;101755.00;5054951;28;20059;-47
2021/10/24 05:41:46;;;;;;;2.70;1.77;;;;;;;21.34;25.76;101761.31;5082387;28;20052;-54
2021/10/24 05:44:19;;;;;;;2.88;1.50;;;;;;;21.34;25.96;101761.31;5079134;28;20051;-51
2021/10/24 05:46:53;;;;;;;2.03;1.15;;;;;;;21.36;25.95;101772.88;5070718;28;20063;-52
2021/10/24 05:49:23;;;;;;;2.13;1.30;;;;;;;21.35;25.95;101778.41;5068347;28;20058;-53
2021/10/24 05:51:54;;;;;;;3.20;1.60;;;;;;;21.36;25.90;101780.16;5078309;28;20067;-54
2021/10/24 05:54:24;;;;;;;2.80;1.50;;;;;;;21.35;25.88;101783.81;5067425;28;20052;-55
2021/10/24 05:56:52;;;;;;;2.10;1.33;;;;;;;21.35;25.83;101791.94;5072264;28;20044;-48
2021/10/24 05:59:33;;;;;;;1.95;1.08;;;;;;;21.36;25.91;101799.09;5057749;28;20055;-58
2021/10/24 06:02:14;;;;;;;3.08;1.60;;;;;;;21.35;25.76;101800.94;5079443;28;20497;-50
2021/10/24 06:05:02;;;;;;;2.20;1.23;;;;;;;21.35;25.76;101819.88;5068447;28;20037;-47
2021/10/24 06:07:35;;;;;;;2.00;1.10;;;;;;;21.35;25.91;101825.28;5076652;28;20420;-55
2021/10/24 06:10:12;;;;;;;2.65;1.10;;;;;;;21.35;25.92;101827.13;5069003;28;20068;-52
2021/10/24 06:12:43;;;;;;;2.28;1.42;;;;;;;21.35;25.78;101835.25;5069597;28;20055;-50
2021/10/24 06:15:11;;;;;;;2.03;1.52;;;;;;;21.36;25.63;101845.09;5068454;28;20049;-54
2021/10/24 06:17:39;;;;;;;2.58;1.27;;;;;;;21.35;25.88;101841.53;5082253;28;20041;-48
2021/10/24 06:20:10;;;;;;;2.90;1.83;;;;;;;21.35;25.75;101843.38;5062237;28;20062;-49
2021/10/24 06:22:39;;;;;;;2.05;1.20;;;;;;;21.35;25.77;101844.22;5081149;28;20071;-52
2021/10/24 06:25:10;;;;;;;3.15;1.13;;;;;;;21.35;25.80;101851.50;5054598;28;20136;-57
2021/10/24 06:27:39;;;;;;;2.13;1.10;;;;;;;21.36;25.72;101854.09;5058330;28;20051;-49
2021/10/24 06:30:09;;;;;;;1.08;0.77;;;;;;;21.35;25.69;101862.31;5061617;28;20064;-53
2021/10/24 06:32:55;;;;;;;2.22;1.17;;;;;;;21.35;25.65;101863.19;5083640;28;20558;-54
2021/10/24 06:35:43;;;;;;;1.85;0.93;;;;;;;21.35;25.73;101867.72;5076791;28;20067;-50
2021/10/24 06:38:30;;;;;;;1.95;1.10;;;;;;;21.34;25.64;101869.56;5074267;28;20060;-51
2021/10/24 06:41:12;;;;;;;1.85;0.88;;;;;;;21.34;25.64;101874.97;5071002;28;20238;-53
2021/10/24 06:43:51;;;;;;;1.63;0.88;;;;;;;21.34;25.69;101880.41;5072151;28;20143;-54
2021/10/24 06:46:44;;;;;;;2.10;1.13;;;;;;;21.36;25.64;101877.59;5069916;28;20057;-53
2021/10/24 06:49:31;;;;;;;1.48;0.90;;;;;;;21.27;25.71;101872.66;5070986;28;20048;-51
2021/10/24 06:52:14;;;;;;;2.25;1.15;;;;;;;21.34;25.63;101882.19;5070233;28;20053;-51
2021/10/24 06:54:51;;;;;;;1.58;1.13;;;;;;;21.32;25.63;101898.50;5070717;28;20063;-54
2021/10/24 06:57:48;;;;;;;1.95;1.23;;;;;;;21.35;25.58;101903.78;5082327;28;20053;-50
2021/10/24 07:00:35;;;;;;;1.88;1.25;;;;;;;21.33;25.75;101902.09;5088854;28;20060;-58
2021/10/24 07:03:41;;;;;;;1.15;0.73;;;;;;;21.33;25.56;101911.06;5061297;28;20533;-54
2021/10/24 07:06:28;;;;;;;2.17;0.93;;;;;;;21.34;25.60;101911.97;5051864;28;20067;-55
2021/10/24 07:09:29;;;;;;;2.00;1.35;;;;;;;21.34;25.51;101923.69;5044672;28;20524;-49
2021/10/24 07:11:57;;;;;;;2.38;0.80;;;;;;;21.34;25.59;101917.38;5061468;28;20040;-50
2021/10/24 07:14:25;;;;;;;1.52;1.08;;;;;;;21.34;25.69;101920.09;5061125;28;20052;-49
2021/10/24 07:16:53;;;;;;;3.05;1.02;;;;;;;21.33;25.52;101927.31;5053628;28;20076;-53
2021/10/24 07:19:21;;;;;;;1.27;1.05;;;;;;;21.32;25.54;101927.41;5058915;28;20068;-53
2021/10/24 07:21:49;;;;;;;2.47;1.20;;;;;;;21.33;25.28;101929.16;5063719;28;20051;-53
2021/10/24 07:24:38;;;;;;;1.27;0.80;;;;;;;21.33;25.50;101929.16;5065436;28;20055;-51
2021/10/24 07:27:06;;;;;;;2.05;1.00;;;;;;;21.33;25.38;101946.25;5062455;28;20056;-54
2021/10/24 07:29:34;;;;;;;1.67;0.80;;;;;;;21.34;25.48;101942.66;5068455;28;20056;-52
2021/10/24 07:32:02;;;;;;;1.23;0.77;;;;;;;21.35;25.35;101948.94;5078445;28;20056;-49
2021/10/24 07:34:47;;;;;;;1.85;1.10;;;;;;;21.35;25.39;101951.63;5065216;28;20055;-52
2021/10/24 07:37:17;;;;;;;1.52;0.90;;;;;;;21.34;25.32;101958.00;5075563;28;20056;-53
2021/10/24 07:39:46;;;;;;;2.17;0.80;;;;;;;21.34;25.55;101949.88;5065080;28;20047;-52
2021/10/24 07:42:15;;;;;;;2.60;0.90;;;;;;;21.33;25.33;101959.78;5058471;28;20056;-56
2021/10/24 07:44:43;;;;;;;1.48;0.90;;;;;;;21.32;25.43;101968.88;5059575;28;20051;-55
2021/10/24 07:47:13;;;;;;;1.38;1.00;;;;;;;21.34;25.33;101974.22;5048297;28;20052;-53
2021/10/24 07:49:42;;;;;;;2.97;1.00;;;;;;;21.34;25.41;101979.63;5060157;28;20049;-53
2021/10/24 07:52:13;;;;;;;3.05;1.15;;;;;;;21.35;25.43;101986.81;5077290;28;20048;-54
2021/10/24 07:54:41;;;;;;;0.77;0.68;;;;;;;21.34;25.37;101983.25;5073943;28;20059;-50
2021/10/24 07:57:13;;;;;;;1.83;1.30;;;;;;;21.33;25.13;101977.88;5075522;28;20045;-51
2021/10/24 07:59:40;;;;;;;1.58;0.98;;;;;;;21.33;25.36;101989.56;5079543;28;20056;-52
2021/10/24 08:02:08;;;;;;;1.60;1.00;;;;;;;21.33;25.26;101992.28;5076650;28;20413;-53
2021/10/24 08:04:36;;;;;;;1.52;0.80;;;;;;;21.32;25.26;101990.53;5066257;28;20056;-53
2021/10/24 08:07:06;;;;;;;1.35;0.80;;;;;;;21.33;25.33;102003.09;5057901;28;20564;-49
2021/10/24 08:09:34;;;;;;;1.17;0.73;;;;;;;21.34;25.17;102001.28;5062475;28;20063;-54
2021/10/24 08:12:02;;;;;;;2.03;1.00;;;;;;;21.34;25.23;102006.72;5076416;28;20061;-47
2021/10/24 08:14:34;;;;;;;2.00;0.80;;;;;;;21.34;25.22;102012.13;5075311;28;20067;-56
2021/10/24 08:17:02;;;;;;;1.75;0.70;;;;;;;21.30;25.26;102010.53;5068617;28;20064;-49
2021/10/24 08:19:31;;;;;;;1.33;0.80;;;;;;;21.32;25.06;102012.19;5062537;28;20044;-54
2021/10/24 08:22:04;;;;;;;1.55;0.75;;;;;;;21.23;25.25;102007.28;5055393;28;20517;-55
2021/10/24 08:24:35;;;;;;;1.30;0.80;;;;;;;21.35;25.12;102032.84;5081290;28;20060;-52
2021/10/24 08:27:16;;;;;;;1.67;0.80;;;;;;;21.31;25.09;102023.13;5088786;28;20405;-55
2021/10/24 08:29:46;;;;;;;1.52;1.02;;;;;;;21.33;25.12;102030.16;5071147;28;20287;-57
2021/10/24 08:32:35;;;;;;;2.95;1.13;;;;;;;21.33;25.16;102035.56;5067611;28;20064;-54
2021/10/24 08:35:03;;;;;;;1.55;0.88;;;;;;;21.35;25.15;102038.25;5062710;28;20060;-54
2021/10/24 08:37:31;;;;;;;1.25;0.77;;;;;;;21.34;25.12;102041.88;5065154;28;20060;-48
2021/10/24 08:39:59;;;;;;;1.08;0.70;;;;;;;21.34;25.15;102042.78;5059522;28;20079;-53
2021/10/24 08:42:28;;;;;;;1.25;0.60;;;;;;;21.33;25.15;102042.84;5058788;28;20070;-56
2021/10/24 08:44:57;;;;;;;1.27;0.60;;;;;;;21.34;25.09;102050.91;5074433;28;20056;-58
2021/10/24 08:47:25;;;;;;;1.52;0.73;;;;;;;21.34;24.98;102050.91;5069534;28;20508;-54
2021/10/24 08:49:53;;;;;;;1.77;1.00;;;;;;;21.35;25.26;102059.91;5092754;28;20048;-53
2021/10/24 08:52:23;;;;;;;1.17;0.70;;;;;;;21.34;25.03;102059.03;5063901;28;20416;-57
2021/10/24 08:54:53;;;;;;;0.70;0.70;;;;;;;21.32;25.10;102063.63;5067895;28;20063;-55
2021/10/24 08:57:23;;;;;;;1.25;0.68;;;;;;;21.33;25.03;102068.06;5068857;28;20060;-57
2021/10/24 08:59:51;;;;;;;2.20;1.10;;;;;;;20.95;25.05;102003.44;5071352;28;20063;-54
2021/10/24 09:02:20;;;;;;;1.17;0.70;;;;;;;21.34;25.07;102080.69;5075797;28;20059;-54
2021/10/24 09:04:49;;;;;;;1.35;0.90;;;;;;;21.32;25.09;102071.72;5075332;28;20052;-49
2021/10/24 09:07:18;;;;;;;2.33;0.75;;;;;;;21.34;24.94;102071.66;5068407;28;20060;-52
2021/10/24 09:09:47;;;;;;;1.45;0.90;;;;;;;21.32;24.96;102069.03;5068254;28;20045;-58
2021/10/24 09:12:15;;;;;;;1.75;0.90;;;;;;;21.32;24.91;102087.97;5075181;28;20056;-53
2021/10/24 09:14:47;;;;;;;1.60;0.90;;;;;;;21.35;25.01;102081.56;5086571;28;20045;-53
2021/10/24 09:17:17;;;;;;;1.65;1.05;;;;;;;21.25;24.95;102074.88;5060453;28;20064;-56
2021/10/24 09:19:46;;;;;;;1.98;0.90;;;;;;;21.34;24.87;102102.34;5064692;28;20044;-55
2021/10/24 09:22:17;;;;;;;1.10;0.80;;;;;;;21.34;25.13;102104.16;5057384;28;20057;-51
2021/10/24 09:25:06;;;;;;;1.58;0.95;;;;;;;21.36;24.95;102111.22;5078070;28;20044;-54
2021/10/24 09:27:34;;;;;;;2.30;0.90;;;;;;;21.10;24.84;102071.19;5058703;28;20528;-56
2021/10/24 09:30:07;;;;;;;1.70;0.95;;;;;;;21.34;25.05;102115.88;5083087;28;20056;-56
2021/10/24 09:32:47;;;;;;;1.23;0.70;;;;;;;21.35;24.88;102119.44;5072232;28;20416;-53
2021/10/24 09:35:17;;;;;;;0.88;0.68;;;;;;;21.33;24.82;102122.19;5070027;28;20056;-54
2021/10/24 09:38:04;;;;;;;1.60;0.73;;;;;;;21.34;24.83;102129.41;5061688;28;20052;-53
2021/10/24 09:40:57;;;;;;;0.95;0.70;;;;;;;21.33;24.83;102135.72;5065754;28;20060;-58
2021/10/24 09:43:29;;;;;;;1.52;1.23;;;;;;;21.32;24.83;102131.28;5061944;28;20060;-59
2021/10/24 09:46:11;;;;;;;1.13;0.77;;;;;;;21.34;24.81;102137.53;5082570;28;20072;-56
2021/10/24 09:48:44;;;;;;;1.25;0.63;;;;;;;21.34;24.84;102133.91;5069704;28;20059;-50
2021/10/24 09:51:16;;;;;;;1.40;0.80;;;;;;;21.34;24.92;102139.34;5075255;28;20057;-52
2021/10/24 09:53:45;;;;;;;1.05;0.60;;;;;;;21.32;24.89;102131.28;5073130;28;20428;-52
2021/10/24 09:56:14;;;;;;;1.83;0.88;;;;;;;21.29;24.83;102123.31;5091078;28;20052;-52
2021/10/24 09:58:42;;;;;;;1.95;1.05;;;;;;;21.32;24.71;102131.28;5075471;28;20896;-50
2021/10/24 10:01:13;;;;;;;1.50;0.80;;;;;;;21.33;25.02;102141.13;5071718;28;20052;-53
2021/10/24 10:03:41;;;;;;;1.63;0.75;;;;;;;21.32;24.88;102142.09;5088062;28;20060;-53
2021/10/24 10:06:09;;;;;;;1.77;1.27;;;;;;;21.32;24.78;102144.81;5066207;28;20045;-52
2021/10/24 10:08:43;;;;;;;0.80;0.70;;;;;;;21.33;24.84;102148.38;5073093;28;20048;-53
2021/10/24 10:11:14;;;;;;;2.47;1.40;;;;;;;21.33;24.74;102153.81;5070245;28;20071;-51
2021/10/24 10:13:44;;;;;;;1.77;1.08;;;;;;;21.32;24.76;102161.06;5062978;28;20063;-51
2021/10/24 10:16:12;;;;;;;1.52;0.80;;;;;;;21.31;24.90;102166.56;5063547;28;20071;-54
2021/10/24 10:19:06;;;;;;;2.88;1.20;;;;;;;21.33;24.64;102170.91;5071899;28;20049;-55
2021/10/24 10:21:35;;;;;;;0.82;0.73;;;;;;;21.31;24.84;102174.69;5065642;28;20063;-55
2021/10/24 10:24:07;;;;;;;1.25;0.85;;;;;;;21.33;24.72;102178.16;5070287;28;20702;-53
2021/10/24 10:26:38;;;;;;;2.03;0.90;;;;;;;21.32;24.77;102173.72;5079426;28;20056;-53
2021/10/24 10:29:06;;;;;;;1.27;0.85;;;;;;;21.32;24.61;102184.53;5068028;28;20052;-53
2021/10/24 10:31:34;;;;;;;1.27;0.68;;;;;;;21.28;24.71;102189.25;5071760;28;20055;-53
2021/10/24 10:34:03;;;;;;;0.98;0.70;;;;;;;21.28;24.74;102189.25;5064873;28;20056;-51
2021/10/24 10:36:57;;;;;;;1.50;0.73;;;;;;;21.35;24.83;102201.53;5068096;28;20052;-51
2021/10/24 10:39:41;;;;;;;1.77;0.93;;;;;;;21.27;24.85;102195.63;5062936;28;20544;-54
2021/10/24 10:42:46;;;;;;;1.40;0.90;;;;;;;21.33;24.65;102208.81;5062789;28;20052;-53
2021/10/24 10:45:26;;;;;;;2.10;0.90;;;;;;;21.33;24.63;102210.66;5071104;28;20063;-55
2021/10/24 10:47:55;;;;;;;1.48;0.85;;;;;;;21.31;24.64;102207.16;5081399;28;20523;-58
2021/10/24 10:50:48;;;;;;;2.05;1.00;;;;;;;21.32;24.61;102211.63;5067846;28;20436;-50
2021/10/24 10:54:02;;;;;;;1.88;0.80;;;;;;;21.33;24.61;102213.34;5094196;28;20056;-52
2021/10/24 10:56:42;;;;;;;1.55;0.77;;;;;;;21.31;24.45;102210.75;5091353;28;20481;-52
2021/10/24 10:59:14;;;;;;;1.27;0.70;;;;;;;21.31;24.66;102209.88;5071584;28;20056;-54
2021/10/24 11:01:42;;;;;;;1.67;0.73;;;;;;;21.30;24.46;102200.84;5061560;28;20053;-51
2021/10/24 11:04:16;;;;;;;2.20;0.93;;;;;;;21.30;24.60;102206.25;5066143;28;20060;-53
2021/10/24 11:07:05;;;;;;;1.10;0.80;;;;;;;21.29;24.59;102204.53;5084416;28;20051;-50
2021/10/24 11:09:53;;;;;;;1.77;0.90;;;;;;;21.31;24.49;102205.31;5070319;28;20052;-59
2021/10/24 11:12:42;;;;;;;0.93;0.80;;;;;;;21.31;24.62;102208.03;5079162;28;20048;-59
2021/10/24 11:15:14;;;;;;;1.85;0.90;;;;;;;21.27;24.50;102209.16;5066926;28;20048;-54
2021/10/24 11:17:45;;;;;;;1.88;0.82;;;;;;;21.29;24.51;102211.78;5076523;28;20048;-57
2021/10/24 11:20:27;;;;;;;1.05;0.70;;;;;;;21.31;24.68;102215.28;5075933;28;20064;-53
2021/10/24 11:23:00;;;;;;;0.82;0.80;;;;;;;21.27;24.53;102217.28;5075163;28;20059;-53
2021/10/24 11:25:34;;;;;;;1.48;0.93;;;;;;;21.27;24.43;102213.66;5063963;28;20056;-56
2021/10/24 11:28:08;;;;;;;1.63;0.80;;;;;;;21.30;24.39;102229.75;5074648;28;20060;-50
2021/10/24 11:30:37;;;;;;;1.50;0.90;;;;;;;21.28;24.51;102224.44;5086658;28;20056;-55
2021/10/24 11:33:05;;;;;;;1.48;1.00;;;;;;;21.29;24.40;102230.72;5067173;28;20049;-57
2021/10/24 11:35:34;;;;;;;1.55;1.15;;;;;;;21.29;24.53;102237.00;5065985;28;20048;-50
2021/10/24 11:38:05;;;;;;;1.13;0.60;;;;;;;21.29;24.51;102236.13;5065469;28;20068;-54
2021/10/24 11:40:34;;;;;;;1.67;1.08;;;;;;;21.29;24.47;102231.59;5074910;28;20067;-53
2021/10/24 11:43:08;;;;;;;1.38;0.90;;;;;;;21.29;24.45;102233.44;5073088;28;20072;-49
2021/10/24 11:45:37;;;;;;;1.60;1.00;;;;;;;21.28;24.30;102224.44;5071267;28;20059;-58
2021/10/24 11:48:07;;;;;;;1.23;0.73;;;;;;;21.27;24.45;102233.53;5077627;28;20040;-52
2021/10/24 11:50:46;;;;;;;1.40;0.88;;;;;;;21.29;24.46;102241.53;5065220;28;20536;-55